CDT,Max TemperatureF,Mean TemperatureF,Min TemperatureF,Max Dew PointF,MeanDew PointF,Min DewpointF,Max Humidity, Mean Humidity, Min Humidity, Max Sea Level PressureIn, Mean Sea Level PressureIn, Min Sea Level PressureIn, Max VisibilityMiles, Mean VisibilityMiles, Min VisibilityMiles, Max Wind SpeedMPH, Mean Wind SpeedMPH, Max Gust SpeedMPH,PrecipitationIn, CloudCover, Events, WindDirDegrees
2013-6-1,66,58,51,59,54,46,100,85,72,29.95,29.72,29.59,10,9,1,23,9,31,0.00,6,,287
2013-6-2,66,58,50,48,43,37,94,64,35,30.09,30.03,29.96,10,10,4,16,10,25,0.00,4,Rain,5
2013-6-3,71,60,48,50,46,43,88,60,40,30.07,30.00,29.91,10,10,9,18,8,25,0.00,1,,143
2013-6-4,62,58,55,57,54,50,100,88,63,30.04,30.00,29.96,10,8,0,23,14,33,0.85,8,Rain,127
2013-6-5,66,60,55,59,54,50,100,82,59,30.03,29.98,29.94,10,8,0,15,7,22,0.00,8,Fog,312
2013-6-6,62,58,51,55,53,50,100,85,68,30.02,29.98,29.93,10,8,1,14,8,17,0.00,7,,3
2013-6-7,64,58,51,54,52,48,100,82,59,30.05,29.99,29.92,10,8,2,9,5,13,0.00,6,,22
2013-6-8,66,58,51,61,56,50,100,89,64,29.92,29.87,29.79,10,8,2,21,9,28,0.37,4,Rain,135
2013-6-9,69,64,59,64,62,59,100,93,73,29.79,29.71,29.68,10,8,1,21,14,32,0.62,6,Rain,137
2013-6-10,75,66,57,66,61,57,100,88,61,29.89,29.85,29.79,10,6,0,10,4,12,0.00,5,Fog,258
2013-6-11,86,75,64,70,66,63,100,74,51,29.88,29.83,29.77,10,10,10,17,10,23,0.00,0,,134
2013-6-12,78,70,62,75,68,55,100,89,73,29.94,29.79,29.70,10,9,2,30,12,39,0.49,5,Rain,29
2013-6-13,77,67,57,59,56,54,88,65,44,30.10,30.05,29.97,10,10,10,18,11,25,0.00,0,,18
2013-6-14,77,70,62,66,62,57,100,78,65,30.09,29.97,29.85,10,10,2,26,9,31,0.22,3,Rain,144
2013-6-15,78,70,62,70,66,63,100,85,65,29.99,29.90,29.85,10,10,0,29,7,38,0.54,3,Rain,188
2013-6-16,84,73,62,66,55,45,100,59,25,29.98,29.95,29.91,10,10,10,15,5,16,0.00,0,,292
2013-6-17,86,73,60,59,54,41,83,54,22,30.00,29.96,29.92,10,10,10,21,8,32,0.00,0,,305
2013-6-18,78,69,60,59,56,52,94,63,41,30.06,30.02,29.97,10,10,6,13,7,17,0.00,0,,28
2013-6-19,84,73,62,64,60,57,88,63,42,30.06,30.01,29.94,10,10,5,22,11,28,0.00,1,,156
2013-6-20,87,78,68,66,65,63,88,64,46,30.00,29.95,29.88,10,10,9,26,15,33,0.00,2,,162
2013-6-21,87,76,64,75,69,61,100,75,58,29.97,29.88,29.80,10,10,2,33,17,43,0.06,3,Rain,148
2013-6-22,89,78,66,73,67,63,94,79,46,30.04,29.90,29.82,10,10,3,29,12,46,0.16,2,Rain,97
2013-6-23,80,73,66,70,67,63,100,78,61,29.93,29.84,29.69,10,10,5,26,12,33,0.17,2,Rain,200
2013-6-24,75,72,68,72,69,64,100,92,78,29.93,29.87,29.74,10,8,2,32,8,41,0.10,5,Rain,154
2013-6-25,86,77,68,73,70,66,100,82,51,29.83,29.77,29.71,10,9,5,21,10,30,0.00,3,,149
2013-6-26,89,80,69,75,68,55,100,71,31,29.88,29.76,29.67,10,9,3,21,9,29,0.00,3,,286
2013-6-27,87,78,68,68,60,52,88,59,31,29.94,29.89,29.87,10,10,10,21,9,29,0.00,0,,285
2013-6-28,82,74,66,61,55,48,73,51,32,29.90,29.86,29.82,10,10,10,30,15,44,0.00,1,,324
2013-6-29,75,68,62,63,58,52,94,70,47,29.96,29.86,29.80,10,10,2,24,13,34,0.07,3,Rain,358
2013-6-30,77,66,55,57,50,41,88,59,28,30.13,30.06,29.96,10,10,8,18,8,25,0.00,0,,20